Time,TemperatureF,DewpointF,PressureIn,WindDirection,WindDirectionDegrees,WindSpeedMPH,WindSpeedGustMPH,Humidity,HourlyPrecipIn,Conditions,Clouds,dailyrainin,SoftwareType,DateUTC
2013-07-01 00:10:00,66.9,66.0,29.92,WSW,250,0.0,0.0,98,0.00,,,0.00,weatherlink.com 1.10,2013-07-01 04:10:00,
2013-07-01 00:25:00,67.0,66.0,29.93,WSW,250,0.0,0.0,98,0.00,,,0.00,weatherlink.com 1.10,2013-07-01 04:25:00,
2013-07-01 00:39:00,67.1,67.0,29.92,WSW,250,0.0,0.0,98,0.00,,,0.00,weatherlink.com 1.10,2013-07-01 04:39:00,
2013-07-01 00:53:00,67.1,67.0,29.93,WSW,250,0.0,0.0,98,0.00,,,0.00,weatherlink.com 1.10,2013-07-01 04:53:00,
2013-07-01 01:08:00,67.2,67.0,29.93,WSW,250,0.0,0.0,98,0.00,,,0.00,weatherlink.com 1.10,2013-07-01 05:08:00,
2013-07-01 01:22:00,67.2,67.0,29.93,WSW,250,0.0,0.0,98,0.00,,,0.00,weatherlink.com 1.10,2013-07-01 05:22:00,
2013-07-01 01:37:00,67.2,67.0,29.93,WSW,250,0.0,0.0,98,0.00,,,0.00,weatherlink.com 1.10,2013-07-01 05:37:00,
2013-07-01 01:51:00,67.1,67.0,29.93,WSW,250,0.0,0.0,98,0.00,,,0.00,weatherlink.com 1.10,2013-07-01 05:51:00,
2013-07-01 02:06:00,67.1,67.0,29.93,WSW,250,0.0,0.0,98,0.00,,,0.00,weatherlink.com 1.10,2013-07-01 06:06:00,
2013-07-01 02:20:00,66.9,66.0,29.92,WSW,250,0.0,0.0,98,0.00,,,0.00,weatherlink.com 1.10,2013-07-01 06:20:00,
2013-07-01 02:35:00,66.7,66.0,29.93,WSW,250,0.0,0.0,98,0.00,,,0.00,weatherlink.com 1.10,2013-07-01 06:35:00,
2013-07-01 02:49:00,66.7,66.0,29.92,WSW,250,0.0,0.0,98,0.00,,,0.00,weatherlink.com 1.10,2013-07-01 06:49:00,
2013-07-01 03:04:00,66.7,66.0,29.92,WSW,250,0.0,0.0,98,0.00,,,0.00,weatherlink.com 1.10,2013-07-01 07:04:00,
2013-07-01 03:18:00,66.7,66.0,29.92,WSW,250,0.0,0.0,98,0.00,,,0.00,weatherlink.com 1.10,2013-07-01 07:18:00,
2013-07-01 03:32:00,66.7,66.0,29.92,WSW,250,0.0,0.0,98,0.00,,,0.00,weatherlink.com 1.10,2013-07-01 07:32:00,
2013-07-01 03:47:00,66.6,66.0,29.92,WSW,250,0.0,0.0,98,0.00,,,0.00,weatherlink.com 1.10,2013-07-01 07:47:00,
2013-07-01 04:01:00,66.4,66.0,29.92,WSW,250,0.0,0.0,98,0.00,,,0.00,weatherlink.com 1.10,2013-07-01 08:01:00,
2013-07-01 04:16:00,66.4,66.0,29.93,WSW,250,0.0,0.0,99,0.00,,,0.00,weatherlink.com 1.10,2013-07-01 08:16:00,
2013-07-01 04:30:00,66.4,66.0,29.93,WSW,250,0.0,0.0,99,0.00,,,0.00,weatherlink.com 1.10,2013-07-01 08:30:00,
2013-07-01 04:44:00,66.4,66.0,29.94,WSW,250,0.0,0.0,99,0.00,,,0.00,weatherlink.com 1.10,2013-07-01 08:44:00,
2013-07-01 04:59:00,66.4,66.0,29.94,WSW,250,0.0,0.0,99,0.00,,,0.00,weatherlink.com 1.10,2013-07-01 08:59:00,
2013-07-01 05:13:00,66.3,66.0,29.94,WSW,250,0.0,0.0,99,0.00,,,0.00,weatherlink.com 1.10,2013-07-01 09:13:00,
2013-07-01 05:28:00,66.3,66.0,29.95,WSW,250,0.0,0.0,99,0.00,,,0.00,weatherlink.com 1.10,2013-07-01 09:28:00,
2013-07-01 05:42:00,66.1,66.0,29.95,WSW,250,0.0,0.0,99,0.00,,,0.00,weatherlink.com 1.10,2013-07-01 09:42:00,
2013-07-01 05:57:00,66.1,66.0,29.96,WSW,250,0.0,0.0,99,0.00,,,0.00,weatherlink.com 1.10,2013-07-01 09:57:00,
2013-07-01 06:11:00,66.2,66.0,29.96,WSW,250,0.0,0.0,99,0.00,,,0.00,weatherlink.com 1.10,2013-07-01 10:11:00,
2013-07-01 06:26:00,66.3,66.0,29.96,WSW,250,0.0,0.0,99,0.00,,,0.00,weatherlink.com 1.10,2013-07-01 10:26:00,
2013-07-01 06:40:00,66.5,66.0,29.96,WSW,250,0.0,0.0,99,0.00,,,0.00,weatherlink.com 1.10,2013-07-01 10:40:00,
2013-07-01 06:54:00,66.8,67.0,29.97,WSW,250,0.0,0.0,99,0.00,,,0.00,weatherlink.com 1.10,2013-07-01 10:54:00,
2013-07-01 07:09:00,67.1,67.0,29.98,WSW,250,0.0,0.0,99,0.00,,,0.00,weatherlink.com 1.10,2013-07-01 11:09:00,
2013-07-01 07:23:00,67.3,67.0,29.97,WSW,250,0.0,0.0,98,0.00,,,0.00,weatherlink.com 1.10,2013-07-01 11:23:00,
2013-07-01 07:38:00,67.8,67.0,29.96,WSW,250,0.0,0.0,97,0.00,,,0.00,weatherlink.com 1.10,2013-07-01 11:38:00,
2013-07-01 07:52:00,68.0,67.0,29.97,WSW,250,0.0,0.0,97,0.00,,,0.00,weatherlink.com 1.10,2013-07-01 11:52:00,
2013-07-01 08:07:00,68.4,67.0,29.97,WSW,250,0.0,0.0,96,0.00,,,0.00,weatherlink.com 1.10,2013-07-01 12:07:00,
2013-07-01 08:21:00,68.7,68.0,29.97,WSW,250,0.0,0.0,96,0.00,,,0.00,weatherlink.com 1.10,2013-07-01 12:21:00,
2013-07-01 08:36:00,68.8,68.0,29.97,WSW,250,0.0,0.0,96,0.00,,,0.00,weatherlink.com 1.10,2013-07-01 12:36:00,
2013-07-01 08:50:00,69.1,68.0,29.98,WSW,250,0.0,0.0,96,0.00,,,0.00,weatherlink.com 1.10,2013-07-01 12:50:00,
2013-07-01 09:05:00,69.5,68.0,29.98,WSW,250,0.0,0.0,95,0.00,,,0.00,weatherlink.com 1.10,2013-07-01 13:05:00,
2013-07-01 09:19:00,69.7,68.0,29.98,WSW,250,0.0,0.0,95,0.00,,,0.00,weatherlink.com 1.10,2013-07-01 13:19:00,
2013-07-01 09:34:00,69.8,68.0,29.98,WSW,251,0.0,0.0,94,0.00,,,0.00,weatherlink.com 1.10,2013-07-01 13:34:00,
2013-07-01 09:48:00,69.9,68.0,29.98,WSW,252,0.0,0.0,95,0.00,,,0.00,weatherlink.com 1.10,2013-07-01 13:48:00,
2013-07-01 10:03:00,70.2,69.0,29.98,WSW,253,0.0,1.0,96,0.01,,,0.01,weatherlink.com 1.10,2013-07-01 14:03:00,
2013-07-01 10:17:00,70.4,68.0,29.97,NE,37,0.0,1.0,93,0.01,,,0.01,weatherlink.com 1.10,2013-07-01 14:17:00,
2013-07-01 10:31:00,70.2,69.0,29.98,East,79,0.0,1.0,96,0.01,,,0.01,weatherlink.com 1.10,2013-07-01 14:31:00,
2013-07-01 10:46:00,70.6,69.0,29.97,East,79,0.0,0.0,95,0.01,,,0.01,weatherlink.com 1.10,2013-07-01 14:46:00,
2013-07-01 11:00:00,70.7,69.0,29.98,North,7,0.0,1.0,95,0.00,,,0.01,weatherlink.com 1.10,2013-07-01 15:00:00,
2013-07-01 11:15:00,70.9,69.0,29.98,North,359,0.0,1.0,94,0.00,,,0.01,weatherlink.com 1.10,2013-07-01 15:15:00,
2013-07-01 11:29:00,71.2,69.0,29.98,North,6,0.0,1.0,93,0.00,,,0.01,weatherlink.com 1.10,2013-07-01 15:29:00,
2013-07-01 11:43:00,71.4,70.0,29.99,North,5,0.0,0.0,94,0.00,,,0.01,weatherlink.com 1.10,2013-07-01 15:43:00,
2013-07-01 11:58:00,71.4,70.0,29.98,North,6,0.0,1.0,95,0.00,,,0.01,weatherlink.com 1.10,2013-07-01 15:58:00,
2013-07-01 12:13:00,71.8,70.0,29.98,North,6,0.0,0.0,95,0.00,,,0.01,weatherlink.com 1.10,2013-07-01 16:13:00,
2013-07-01 12:27:00,71.9,70.0,29.98,NE,38,0.0,2.0,94,0.01,,,0.02,weatherlink.com 1.10,2013-07-01 16:27:00,
2013-07-01 12:41:00,72.4,70.0,29.98,North,10,0.0,2.0,93,0.01,,,0.02,weatherlink.com 1.10,2013-07-01 16:41:00,
2013-07-01 12:56:00,72.7,71.0,29.97,North,359,0.0,1.0,94,0.02,,,0.03,weatherlink.com 1.10,2013-07-01 16:56:00,
2013-07-01 13:11:00,72.8,71.0,29.97,ENE,60,2.0,2.0,94,0.03,,,0.04,weatherlink.com 1.10,2013-07-01 17:11:00,
2013-07-01 13:25:00,72.6,71.0,29.97,NE,56,0.0,2.0,94,0.04,,,0.06,weatherlink.com 1.10,2013-07-01 17:25:00,
2013-07-01 13:39:00,72.5,71.0,29.98,North,350,0.0,1.0,96,0.06,,,0.08,weatherlink.com 1.10,2013-07-01 17:39:00,
2013-07-01 13:54:00,72.3,71.0,29.97,NNW,345,1.0,2.0,95,0.08,,,0.11,weatherlink.com 1.10,2013-07-01 17:54:00,
2013-07-01 14:08:00,72.1,71.0,29.97,NNW,345,0.0,1.0,96,0.12,,,0.16,weatherlink.com 1.10,2013-07-01 18:08:00,
2013-07-01 14:23:00,71.8,71.0,29.97,NNE,20,0.0,1.0,96,0.14,,,0.19,weatherlink.com 1.10,2013-07-01 18:23:00,
2013-07-01 14:37:00,71.9,71.0,29.97,North,6,0.0,1.0,97,0.14,,,0.22,weatherlink.com 1.10,2013-07-01 18:37:00,
2013-07-01 14:51:00,71.9,71.0,29.96,ENE,57,1.0,2.0,97,0.13,,,0.24,weatherlink.com 1.10,2013-07-01 18:51:00,
2013-07-01 15:06:00,72.1,71.0,29.96,East,79,0.0,2.0,97,0.11,,,0.26,weatherlink.com 1.10,2013-07-01 19:06:00,
2013-07-01 15:21:00,72.0,71.0,29.97,NE,44,0.0,2.0,97,0.11,,,0.30,weatherlink.com 1.10,2013-07-01 19:21:00,
2013-07-01 15:35:00,72.1,71.0,29.96,NNW,342,0.0,2.0,97,0.11,,,0.32,weatherlink.com 1.10,2013-07-01 19:35:00,
2013-07-01 15:49:00,72.1,71.0,29.96,NNW,329,1.0,1.0,96,0.08,,,0.32,weatherlink.com 1.10,2013-07-01 19:49:00,
2013-07-01 16:04:00,71.9,71.0,29.96,North,354,0.0,1.0,96,0.07,,,0.33,weatherlink.com 1.10,2013-07-01 20:04:00,
2013-07-01 16:18:00,71.7,71.0,29.96,North,360,0.0,1.0,97,0.09,,,0.38,weatherlink.com 1.10,2013-07-01 20:18:00,
2013-07-01 16:33:00,71.4,71.0,29.97,North,349,0.0,1.0,98,0.12,,,0.44,weatherlink.com 1.10,2013-07-01 20:33:00,
2013-07-01 16:47:00,71.3,71.0,29.96,North,350,0.0,1.0,98,0.16,,,0.48,weatherlink.com 1.10,2013-07-01 20:47:00,
2013-07-01 17:02:00,71.4,71.0,29.95,NNW,341,0.0,1.0,98,0.20,,,0.53,weatherlink.com 1.10,2013-07-01 21:02:00,
2013-07-01 17:16:00,71.6,71.0,29.95,NE,41,0.0,1.0,98,0.15,,,0.53,weatherlink.com 1.10,2013-07-01 21:16:00,
2013-07-01 17:31:00,71.6,71.0,29.96,NNE,33,0.0,2.0,98,0.10,,,0.53,weatherlink.com 1.10,2013-07-01 21:31:00,
2013-07-01 17:45:00,71.5,71.0,29.95,NE,34,0.0,0.0,98,0.05,,,0.53,weatherlink.com 1.10,2013-07-01 21:45:00,
2013-07-01 17:59:00,71.6,71.0,29.96,NE,34,0.0,1.0,98,0.00,,,0.53,weatherlink.com 1.10,2013-07-01 21:59:00,
2013-07-01 18:14:00,71.7,71.0,29.96,NNE,13,0.0,0.0,98,0.00,,,0.53,weatherlink.com 1.10,2013-07-01 22:14:00,
2013-07-01 18:28:00,71.7,71.0,29.96,NNE,13,0.0,0.0,98,0.00,,,0.53,weatherlink.com 1.10,2013-07-01 22:28:00,
2013-07-01 18:43:00,71.7,71.0,29.97,North,354,0.0,1.0,98,0.00,,,0.53,weatherlink.com 1.10,2013-07-01 22:43:00,
2013-07-01 18:57:00,71.6,71.0,29.97,NNE,24,0.0,1.0,97,0.00,,,0.53,weatherlink.com 1.10,2013-07-01 22:57:00,
2013-07-01 19:12:00,71.5,71.0,29.97,North,360,0.0,1.0,98,0.00,,,0.53,weatherlink.com 1.10,2013-07-01 23:12:00,
2013-07-01 19:26:00,71.4,70.0,29.97,North,9,0.0,2.0,96,0.00,,,0.53,weatherlink.com 1.10,2013-07-01 23:26:00,
2013-07-01 19:40:00,71.1,70.0,29.98,NNE,22,0.0,0.0,97,0.00,,,0.53,weatherlink.com 1.10,2013-07-01 23:40:00,
2013-07-01 19:55:00,70.9,70.0,29.98,NNE,19,0.0,0.0,98,0.00,,,0.53,weatherlink.com 1.10,2013-07-01 23:55:00,
2013-07-01 20:10:00,70.6,70.0,29.98,NNE,19,0.0,0.0,98,0.00,,,0.53,weatherlink.com 1.10,2013-07-02 00:10:00,
2013-07-01 20:24:00,70.5,70.0,29.98,NNE,19,0.0,0.0,98,0.00,,,0.53,weatherlink.com 1.10,2013-07-02 00:24:00,
2013-07-01 20:38:00,70.3,70.0,29.99,NNE,20,0.0,0.0,98,0.00,,,0.53,weatherlink.com 1.10,2013-07-02 00:38:00,
2013-07-01 20:53:00,70.0,69.0,29.99,NNE,20,0.0,0.0,98,0.00,,,0.53,weatherlink.com 1.10,2013-07-02 00:53:00,
2013-07-01 21:07:00,69.7,69.0,29.99,NNE,19,0.0,0.0,98,0.00,,,0.53,weatherlink.com 1.10,2013-07-02 01:07:00,
2013-07-01 21:22:00,69.5,69.0,30.00,NNE,19,0.0,0.0,98,0.00,,,0.53,weatherlink.com 1.10,2013-07-02 01:22:00,
2013-07-01 21:36:00,69.5,69.0,30.00,NNE,19,0.0,0.0,99,0.00,,,0.53,weatherlink.com 1.10,2013-07-02 01:36:00,
2013-07-01 21:50:00,69.5,69.0,30.01,NNE,19,0.0,0.0,99,0.00,,,0.53,weatherlink.com 1.10,2013-07-02 01:50:00,
2013-07-01 22:05:00,69.5,69.0,30.01,NNE,19,0.0,0.0,99,0.00,,,0.53,weatherlink.com 1.10,2013-07-02 02:05:00,
2013-07-01 22:20:00,69.5,69.0,30.01,NNE,19,0.0,0.0,99,0.00,,,0.53,weatherlink.com 1.10,2013-07-02 02:20:00,
2013-07-01 22:34:00,69.4,69.0,30.01,NNE,19,0.0,0.0,99,0.00,,,0.53,weatherlink.com 1.10,2013-07-02 02:34:00,
2013-07-01 22:48:00,69.4,69.0,30.01,NNE,20,0.0,0.0,98,0.00,,,0.53,weatherlink.com 1.10,2013-07-02 02:48:00,
2013-07-01 23:03:00,69.0,68.0,30.01,NNE,19,0.0,0.0,98,0.00,,,0.53,weatherlink.com 1.10,2013-07-02 03:03:00,
2013-07-01 23:18:00,68.7,68.0,30.00,NNE,19,0.0,0.0,99,0.00,,,0.53,weatherlink.com 1.10,2013-07-02 03:18:00,
2013-07-01 23:32:00,68.6,68.0,30.01,NNE,19,0.0,0.0,99,0.00,,,0.53,weatherlink.com 1.10,2013-07-02 03:32:00,
2013-07-01 23:46:00,68.6,68.0,30.02,NNE,19,0.0,0.0,99,0.00,,,0.53,weatherlink.com 1.10,2013-07-02 03:46:00,